Time;durP1;ratioP1;P1;durP2;ratioP2;P2;SDS_P1;SDS_P2;PMS_P1;PMS_P2;Temp;Humidity;BMP_temperature;BMP_pressure;BME280_temperature;BME280_humidity;BME280_pressure;Samples;Min_cycle;Max_cycle;Signal;HPM_P1;HPM_P2
2021/12/28 00:00:11;;;;;;;24.60;15.05;;;3.80;99.90;;;;;;4986699;28;20045;-79
2021/12/28 00:02:37;;;;;;;22.90;14.90;;;3.90;99.90;;;;;;4990181;28;20041;-75
2021/12/28 00:05:04;;;;;;;22.25;15.25;;;4.00;99.90;;;;;;4985946;28;20042;-79
2021/12/28 00:07:29;;;;;;;27.73;16.55;;;3.90;99.90;;;;;;4998354;28;20034;-76
2021/12/28 00:09:55;;;;;;;26.35;17.13;;;3.90;99.90;;;;;;4986134;28;20180;-77
2021/12/28 00:12:21;;;;;;;23.10;14.35;;;3.80;99.90;;;;;;4985574;28;20127;-78
2021/12/28 00:15:02;;;;;;;32.75;18.05;;;3.90;99.90;;;;;;4999712;28;20085;-79
2021/12/28 00:20:12;;;;;;;18.00;14.02;;;3.90;99.90;;;;;;5030471;28;20460;-79
2021/12/28 00:22:38;;;;;;;31.45;18.42;;;5.40;99.90;;;;;;4987801;28;20128;-79
2021/12/28 00:25:05;;;;;;;34.92;25.58;;;3.90;99.90;;;;;;5001045;28;20038;-80
2021/12/28 00:27:31;;;;;;;34.70;20.83;;;4.00;99.90;;;;;;5032841;28;20034;-79
2021/12/28 00:29:57;;;;;;;24.60;17.02;;;5.80;99.90;;;;;;4988133;28;20512;-75
2021/12/28 00:32:22;;;;;;;21.15;15.95;;;4.00;99.90;;;;;;4985866;28;20572;-78
2021/12/28 00:34:48;;;;;;;33.15;20.08;;;4.00;99.90;;;;;;4999376;28;20050;-75
2021/12/28 00:37:13;;;;;;;22.48;16.23;;;4.00;99.90;;;;;;4980500;28;20092;-78
2021/12/28 00:39:39;;;;;;;22.33;16.25;;;4.00;99.90;;;;;;4988611;28;20060;-79
2021/12/28 00:42:06;;;;;;;44.35;24.25;;;4.00;99.90;;;;;;5001011;28;20133;-74
2021/12/28 00:44:32;;;;;;;18.27;14.90;;;4.10;99.90;;;;;;4992914;28;20046;-78
2021/12/28 00:46:57;;;;;;;19.73;16.55;;;4.10;99.90;;;;;;5001820;28;20037;-75
2021/12/28 00:49:23;;;;;;;22.05;15.90;;;4.00;99.90;;;;;;4982504;28;20070;-74
2021/12/28 00:51:50;;;;;;;23.70;16.73;;;4.10;99.90;;;;;;4993425;28;20099;-79
2021/12/28 00:54:15;;;;;;;22.80;17.35;;;3.70;99.90;;;;;;5004609;28;20041;-75
2021/12/28 00:56:41;;;;;;;27.95;19.08;;;4.20;99.90;;;;;;4990280;28;20509;-80
2021/12/28 00:59:07;;;;;;;23.50;17.10;;;3.60;99.90;;;;;;5008509;28;20128;-75
2021/12/28 01:01:32;;;;;;;31.13;19.48;;;3.80;99.90;;;;;;4998567;28;20053;-75
2021/12/28 01:03:58;;;;;;;26.90;19.92;;;4.20;99.90;;;;;;5006888;28;20041;-78
2021/12/28 01:06:24;;;;;;;39.20;25.02;;;4.30;99.90;;;;;;5001118;28;20049;-80
2021/12/28 01:08:49;;;;;;;28.83;20.95;;;4.50;99.90;;;;;;4988267;28;20042;-75
2021/12/28 01:11:15;;;;;;;51.17;27.80;;;4.40;99.90;;;;;;4986503;28;20046;-80
2021/12/28 01:13:41;;;;;;;37.35;24.65;;;4.40;99.90;;;;;;4999463;28;20081;-80
2021/12/28 01:16:08;;;;;;;37.25;25.67;;;4.50;99.90;;;;;;4987475;28;20486;-78
2021/12/28 01:18:34;;;;;;;41.22;26.83;;;5.90;99.90;;;;;;4997481;28;20050;-76
2021/12/28 01:20:59;;;;;;;41.78;26.50;;;4.50;99.90;;;;;;4980609;28;20050;-79
2021/12/28 01:23:26;;;;;;;43.22;26.60;;;6.40;99.90;;;;;;4981082;28;20057;-75
2021/12/28 01:25:52;;;;;;;54.45;29.13;;;4.70;99.90;;;;;;5002253;28;20056;-76
2021/12/28 01:28:17;;;;;;;46.95;28.02;;;4.70;99.90;;;;;;4986191;28;20050;-75
2021/12/28 01:30:43;;;;;;;52.72;29.30;;;4.80;99.90;;;;;;4999547;28;20659;-76
2021/12/28 01:33:09;;;;;;;81.35;36.53;;;4.70;99.90;;;;;;5009023;28;20057;-75
2021/12/28 01:35:35;;;;;;;54.13;31.90;;;4.70;99.90;;;;;;4996912;28;20509;-77
2021/12/28 01:38:01;;;;;;;47.45;29.30;;;4.80;99.90;;;;;;4986656;28;20442;-77
2021/12/28 01:40:30;;;;;;;52.10;31.13;;;4.90;99.90;;;;;;4980399;28;20104;-80
2021/12/28 01:43:12;;;;;;;52.67;30.02;;;5.30;99.90;;;;;;4986470;28;20137;-76
2021/12/28 01:45:45;;;;;;;51.13;29.08;;;4.90;99.90;;;;;;5009455;28;20057;-75
2021/12/28 01:48:14;;;;;;;50.00;29.77;;;5.00;99.90;;;;;;4984429;28;20042;-76
2021/12/28 01:50:40;;;;;;;50.20;29.85;;;4.90;99.90;;;;;;5001488;28;20038;-74
2021/12/28 01:53:07;;;;;;;48.00;30.40;;;4.90;99.90;;;;;;4997759;28;20095;-75
2021/12/28 01:55:34;;;;;;;53.25;30.92;;;4.80;99.90;;;;;;4983840;28;20060;-78
2021/12/28 01:58:00;;;;;;;55.17;30.85;;;4.90;99.90;;;;;;5007427;28;20482;-80
2021/12/28 02:00:26;;;;;;;52.45;32.90;;;5.00;99.90;;;;;;4996054;28;20076;-77
2021/12/28 02:02:52;;;;;;;58.97;31.52;;;6.40;99.90;;;;;;4989247;28;20080;-76
2021/12/28 02:05:18;;;;;;;54.22;30.77;;;5.10;99.90;;;;;;4995718;28;20084;-75
2021/12/28 02:07:43;;;;;;;59.28;32.35;;;5.10;99.90;;;;;;5009204;28;20049;-80
2021/12/28 02:10:09;;;;;;;58.38;31.95;;;5.10;99.90;;;;;;4989271;28;20636;-75
2021/12/28 02:12:36;;;;;;;54.15;30.30;;;5.10;99.90;;;;;;5001787;28;20046;-75
2021/12/28 02:15:06;;;;;;;63.30;33.42;;;4.80;99.90;;;;;;5002896;28;20056;-75
2021/12/28 02:17:35;;;;;;;48.30;32.10;;;5.20;99.90;;;;;;5011332;28;20046;-75
2021/12/28 02:20:08;;;;;;;56.10;31.17;;;5.10;99.90;;;;;;5000701;28;20053;-75
2021/12/28 02:22:34;;;;;;;57.58;33.15;;;5.20;99.90;;;;;;4981920;28;20046;-74
2021/12/28 02:25:00;;;;;;;57.65;32.88;;;5.20;99.90;;;;;;4998126;28;20592;-80
2021/12/28 02:27:29;;;;;;;59.50;33.17;;;7.40;99.90;;;;;;4996645;28;20056;-75
2021/12/28 02:29:56;;;;;;;63.33;34.05;;;5.20;99.90;;;;;;5004173;28;20045;-74
2021/12/28 02:32:25;;;;;;;60.58;33.47;;;5.30;99.90;;;;;;5014177;28;20084;-77
2021/12/28 02:34:51;;;;;;;63.50;34.05;;;5.50;99.90;;;;;;4996902;28;20041;-79
2021/12/28 02:37:16;;;;;;;65.63;33.45;;;5.30;99.90;;;;;;4974888;28;20397;-75
2021/12/28 02:39:44;;;;;;;55.95;31.88;;;5.30;99.90;;;;;;5010494;28;20041;-76
2021/12/28 02:42:09;;;;;;;63.40;32.83;;;5.30;99.90;;;;;;4994107;28;20445;-76
2021/12/28 02:44:35;;;;;;;71.30;33.80;;;5.40;99.90;;;;;;5001061;28;20525;-79
2021/12/28 02:47:00;;;;;;;72.60;34.28;;;5.40;99.90;;;;;;4977494;28;20088;-76
2021/12/28 02:49:26;;;;;;;68.05;35.28;;;5.50;99.90;;;;;;4992603;28;20041;-79
2021/12/28 02:51:51;;;;;;;72.00;35.15;;;5.40;99.90;;;;;;5013370;28;20544;-80
2021/12/28 02:54:17;;;;;;;66.10;36.42;;;5.50;99.90;;;;;;5024910;28;20092;-76
2021/12/28 02:56:43;;;;;;;74.78;36.17;;;5.50;99.90;;;;;;5011481;28;20038;-80
2021/12/28 02:59:08;;;;;;;63.05;33.30;;;5.50;99.90;;;;;;5011209;28;20176;-76
2021/12/28 03:01:34;;;;;;;66.57;33.17;;;5.40;99.90;;;;;;4992403;28;20054;-76
2021/12/28 03:04:03;;;;;;;72.25;35.22;;;4.90;99.90;;;;;;4979742;28;20482;-79
2021/12/28 03:06:31;;;;;;;68.30;35.85;;;5.60;99.90;;;;;;5008823;28;20042;-80
2021/12/28 03:08:58;;;;;;;71.40;34.88;;;5.10;99.90;;;;;;4973452;28;20074;-80
2021/12/28 03:11:26;;;;;;;61.97;32.65;;;5.20;99.90;;;;;;5003115;28;20033;-77
2021/12/28 03:13:59;;;;;;;75.55;36.88;;;5.60;99.90;;;;;;4975863;28;20045;-75
2021/12/28 03:16:27;;;;;;;73.97;36.10;;;5.70;99.90;;;;;;4991680;28;20072;-78
2021/12/28 03:18:53;;;;;;;72.05;35.00;;;5.70;99.90;;;;;;4975696;28;20060;-78
2021/12/28 03:21:21;;;;;;;77.88;36.15;;;5.60;99.90;;;;;;4976885;28;20045;-75
2021/12/28 03:23:48;;;;;;;70.55;35.25;;;5.60;99.90;;;;;;4977274;28;20050;-79
2021/12/28 03:26:14;;;;;;;71.10;35.38;;;5.70;99.90;;;;;;4977916;28;20405;-75
2021/12/28 03:28:41;;;;;;;72.53;35.70;;;5.70;99.90;;;;;;4977128;28;20048;-76
2021/12/28 03:31:13;;;;;;;86.72;36.63;;;5.70;99.90;;;;;;4992356;28;20136;-76
2021/12/28 03:33:40;;;;;;;73.93;37.40;;;5.80;99.90;;;;;;4970701;28;20371;-76
2021/12/28 03:36:08;;;;;;;149.48;47.30;;;6.40;99.90;;;;;;4997751;28;20049;-75
2021/12/28 03:38:34;;;;;;;67.45;34.70;;;6.20;99.90;;;;;;5017614;28;20054;-75
2021/12/28 03:41:00;;;;;;;65.18;34.97;;;5.80;99.90;;;;;;5009773;28;20085;-76
2021/12/28 03:43:25;;;;;;;67.63;34.67;;;5.80;99.90;;;;;;4999774;28;20080;-75
2021/12/28 03:45:51;;;;;;;72.38;34.30;;;5.80;99.90;;;;;;4984462;28;20124;-74
2021/12/28 03:48:17;;;;;;;72.50;35.47;;;5.80;99.90;;;;;;4986605;28;20064;-77
2021/12/28 03:50:43;;;;;;;59.72;33.83;;;5.80;99.90;;;;;;5013711;28;20789;-76
2021/12/28 03:53:09;;;;;;;56.63;32.38;;;5.10;99.90;;;;;;4981719;28;20050;-77
2021/12/28 03:55:35;;;;;;;67.18;33.78;;;5.80;99.90;;;;;;4999159;28;20529;-75
2021/12/28 03:58:02;;;;;;;71.97;34.75;;;5.80;99.90;;;;;;4983333;28;20076;-75
2021/12/28 04:00:31;;;;;;;76.30;33.83;;;5.80;99.90;;;;;;4990658;28;20042;-75
2021/12/28 04:02:57;;;;;;;77.90;34.47;;;5.80;99.90;;;;;;4987949;28;20049;-75
2021/12/28 04:05:22;;;;;;;144.95;41.60;;;5.80;99.90;;;;;;4986457;28;20041;-76
2021/12/28 04:07:48;;;;;;;72.28;34.20;;;5.80;99.90;;;;;;4992103;28;20038;-75
2021/12/28 04:10:16;;;;;;;65.88;35.28;;;5.80;99.90;;;;;;5004523;28;20045;-78
2021/12/28 04:12:43;;;;;;;73.55;35.22;;;5.90;99.90;;;;;;4985203;28;20129;-75
2021/12/28 04:15:13;;;;;;;87.63;34.75;;;5.90;99.90;;;;;;5019736;28;20061;-75
2021/12/28 04:17:39;;;;;;;69.55;31.48;;;6.20;99.90;;;;;;4993376;28;20505;-75
2021/12/28 04:20:10;;;;;;;90.75;34.75;;;5.80;99.90;;;;;;4982682;28;20049;-76
2021/12/28 04:22:37;;;;;;;72.95;32.67;;;5.90;99.90;;;;;;4989493;28;20436;-75
2021/12/28 04:25:04;;;;;;;72.85;32.90;;;5.80;99.90;;;;;;4998640;28;20042;-74
2021/12/28 04:27:29;;;;;;;66.88;32.83;;;5.90;99.90;;;;;;4982499;28;20033;-76
2021/12/28 04:29:55;;;;;;;76.75;33.67;;;5.90;99.90;;;;;;4996343;28;20050;-79
2021/12/28 04:32:21;;;;;;;84.35;34.85;;;5.90;99.90;;;;;;4991068;28;20038;-76
2021/12/28 04:34:47;;;;;;;208.25;48.20;;;5.50;99.90;;;;;;4991676;28;20124;-75
2021/12/28 04:37:13;;;;;;;104.70;36.75;;;5.90;99.90;;;;;;4990220;28;20457;-76
2021/12/28 04:39:38;;;;;;;131.55;39.60;;;5.90;99.90;;;;;;4984515;28;20038;-75
2021/12/28 04:42:05;;;;;;;105.53;38.30;;;5.90;99.90;;;;;;4983308;28;20435;-74
2021/12/28 04:44:31;;;;;;;65.60;33.00;;;6.00;99.90;;;;;;4988441;28;20041;-79
2021/12/28 04:46:57;;;;;;;172.27;44.05;;;5.90;99.90;;;;;;4989011;28;20041;-76
2021/12/28 04:49:25;;;;;;;77.57;34.17;;;5.90;99.90;;;;;;4985135;28;20049;-79
2021/12/28 04:51:51;;;;;;;101.22;37.95;;;6.00;99.90;;;;;;4983865;28;20045;-76
2021/12/28 04:54:17;;;;;;;88.13;34.65;;;6.00;99.90;;;;;;5006025;28;20056;-76
2021/12/28 04:56:43;;;;;;;80.38;34.22;;;6.00;99.90;;;;;;5000114;28;20172;-79
2021/12/28 04:59:09;;;;;;;81.40;34.63;;;5.90;99.90;;;;;;4986059;28;20200;-80
2021/12/28 05:01:37;;;;;;;68.95;33.38;;;6.00;99.90;;;;;;4987231;28;20700;-78
2021/12/28 05:04:04;;;;;;;93.60;34.55;;;5.90;99.90;;;;;;5005375;28;20077;-76
2021/12/28 05:06:31;;;;;;;112.95;39.30;;;6.00;99.90;;;;;;4979794;28;20543;-75
2021/12/28 05:08:56;;;;;;;70.55;32.72;;;6.00;99.90;;;;;;4984466;28;20033;-75
2021/12/28 05:11:22;;;;;;;71.32;34.17;;;6.00;99.90;;;;;;5015103;28;20064;-79
2021/12/28 05:13:48;;;;;;;76.95;36.03;;;5.90;99.90;;;;;;4998566;28;20143;-80
2021/12/28 05:16:15;;;;;;;78.40;33.95;;;6.00;99.90;;;;;;4988429;28;20600;-77
2021/12/28 05:18:42;;;;;;;89.07;39.10;;;6.00;99.90;;;;;;5001878;28;20064;-76
2021/12/28 05:21:08;;;;;;;166.23;46.08;;;6.00;99.90;;;;;;5003292;28;20128;-80
2021/12/28 05:23:34;;;;;;;91.60;37.15;;;6.00;99.90;;;;;;5003144;28;20053;-77
2021/12/28 05:25:59;;;;;;;97.70;38.55;;;6.00;99.90;;;;;;4985092;28;20390;-79
2021/12/28 05:28:25;;;;;;;68.63;34.00;;;6.00;99.90;;;;;;4991019;28;20034;-76
2021/12/28 05:30:52;;;;;;;77.05;34.78;;;5.50;99.90;;;;;;4999483;28;20041;-77
2021/12/28 05:33:18;;;;;;;62.45;32.35;;;6.00;99.90;;;;;;5001369;28;20046;-75
2021/12/28 05:35:43;;;;;;;91.25;37.10;;;6.00;99.90;;;;;;4985771;28;20040;-76
2021/12/28 05:38:11;;;;;;;73.53;33.35;;;5.90;99.90;;;;;;4999598;28;20095;-80
2021/12/28 05:40:38;;;;;;;60.47;31.80;;;6.00;99.90;;;;;;4981722;28;20127;-75
2021/12/28 05:43:03;;;;;;;61.00;29.58;;;6.00;99.90;;;;;;4999952;28;20041;-80
2021/12/28 05:45:29;;;;;;;64.82;31.40;;;6.00;99.90;;;;;;4998206;28;20458;-80
2021/12/28 05:47:55;;;;;;;71.88;31.25;;;7.20;99.90;;;;;;4986166;28;20505;-75
2021/12/28 05:50:20;;;;;;;57.90;30.90;;;6.00;99.90;;;;;;4980845;28;20085;-77
2021/12/28 05:52:46;;;;;;;86.25;34.65;;;6.00;99.90;;;;;;4988323;28;20397;-79
2021/12/28 05:55:12;;;;;;;57.08;30.25;;;5.90;99.90;;;;;;4986058;28;20033;-79
2021/12/28 05:57:37;;;;;;;62.47;30.02;;;6.50;99.90;;;;;;5001297;28;20390;-76
2021/12/28 06:00:09;;;;;;;62.42;29.33;;;5.90;99.90;;;;;;5003647;28;20545;-79
2021/12/28 06:02:35;;;;;;;57.72;28.40;;;5.90;99.90;;;;;;4987417;28;20477;-76
2021/12/28 06:05:01;;;;;;;53.90;28.85;;;5.90;99.90;;;;;;5017967;28;20037;-76
2021/12/28 06:07:27;;;;;;;45.95;27.23;;;5.90;99.90;;;;;;4988270;28;20125;-76
2021/12/28 06:09:56;;;;;;;61.05;29.30;;;5.90;99.90;;;;;;4978691;28;20038;-77
2021/12/28 06:12:26;;;;;;;59.78;29.40;;;5.90;99.90;;;;;;4979785;28;20386;-80
2021/12/28 06:14:52;;;;;;;83.72;33.10;;;5.80;99.90;;;;;;4982699;28;20046;-74
2021/12/28 06:17:18;;;;;;;47.80;27.42;;;5.80;99.90;;;;;;4994333;28;20494;-75
2021/12/28 06:19:44;;;;;;;47.60;27.42;;;5.80;99.90;;;;;;5010215;28;20486;-77
2021/12/28 06:22:10;;;;;;;54.63;28.02;;;5.80;99.90;;;;;;4983111;28;20048;-78
2021/12/28 06:24:36;;;;;;;55.65;26.58;;;5.80;99.90;;;;;;4981741;28;20057;-77
2021/12/28 06:27:02;;;;;;;52.95;23.92;;;5.80;99.90;;;;;;4993599;28;20042;-79
2021/12/28 06:29:27;;;;;;;63.83;26.40;;;5.80;99.90;;;;;;4979124;28;20049;-80
2021/12/28 06:31:53;;;;;;;39.65;23.02;;;6.80;99.90;;;;;;4997785;28;20052;-76
2021/12/28 06:34:19;;;;;;;47.95;25.20;;;5.70;99.90;;;;;;4997133;28;20053;-79
2021/12/28 06:36:44;;;;;;;39.55;22.88;;;5.20;99.90;;;;;;5011026;28;20041;-76
2021/12/28 06:39:11;;;;;;;49.67;24.20;;;5.70;99.90;;;;;;4996479;28;20050;-75
2021/12/28 06:41:38;;;;;;;45.00;23.65;;;5.70;99.90;;;;;;4993535;28;20128;-77
2021/12/28 06:44:06;;;;;;;36.95;21.52;;;5.70;99.90;;;;;;5000654;28;20045;-76
2021/12/28 06:46:32;;;;;;;42.15;22.88;;;5.70;99.90;;;;;;5002538;28;20054;-76
2021/12/28 06:48:58;;;;;;;36.20;21.08;;;5.70;99.90;;;;;;4984021;28;20045;-79
2021/12/28 06:51:23;;;;;;;56.45;24.60;;;5.60;99.90;;;;;;4979087;28;20861;-76
2021/12/28 06:53:49;;;;;;;41.30;22.10;;;5.70;99.90;;;;;;4982851;28;20041;-79
2021/12/28 06:56:15;;;;;;;53.30;23.90;;;5.60;99.90;;;;;;4996586;28;20442;-76
2021/12/28 06:58:41;;;;;;;34.05;19.73;;;5.90;99.90;;;;;;4982439;28;20073;-78
2021/12/28 07:01:07;;;;;;;38.83;22.27;;;5.50;99.90;;;;;;4982190;28;20112;-76
2021/12/28 07:03:33;;;;;;;43.00;22.05;;;5.50;99.90;;;;;;4977219;28;20041;-79
2021/12/28 07:05:59;;;;;;;35.13;20.77;;;5.50;99.90;;;;;;4981369;28;20050;-76
2021/12/28 07:08:24;;;;;;;46.38;21.95;;;5.40;99.90;;;;;;4997474;28;20040;-76
2021/12/28 07:10:50;;;;;;;41.65;20.55;;;5.50;99.90;;;;;;5028074;28;20049;-76
2021/12/28 07:13:17;;;;;;;53.28;23.30;;;7.10;99.90;;;;;;4961247;28;20038;-78
2021/12/28 07:15:42;;;;;;;36.17;20.42;;;5.40;99.90;;;;;;5028029;28;20138;-78
2021/12/28 07:18:09;;;;;;;45.25;19.77;;;5.40;99.90;;;;;;4999295;28;20117;-78
2021/12/28 07:20:34;;;;;;;41.67;20.00;;;4.70;99.90;;;;;;4994409;28;20038;-76
2021/12/28 07:23:00;;;;;;;32.53;19.00;;;5.20;99.90;;;;;;4994804;28;20042;-77
2021/12/28 07:25:26;;;;;;;33.72;17.90;;;5.30;99.90;;;;;;4980855;28;20462;-75
2021/12/28 07:27:52;;;;;;;34.33;17.73;;;5.40;99.90;;;;;;4982336;28;20046;-77
2021/12/28 07:30:17;;;;;;;34.22;17.65;;;5.40;99.90;;;;;;5026714;28;20084;-76
2021/12/28 07:32:43;;;;;;;36.28;17.45;;;5.40;99.90;;;;;;5018160;28;20061;-80
2021/12/28 07:35:10;;;;;;;38.58;17.10;;;5.50;99.90;;;;;;4987925;28;20477;-77
2021/12/28 07:37:36;;;;;;;35.55;16.42;;;5.40;99.90;;;;;;5002864;28;20149;-76
2021/12/28 07:40:03;;;;;;;29.85;15.90;;;5.40;99.90;;;;;;5004333;28;20095;-78
2021/12/28 07:42:29;;;;;;;33.22;16.08;;;5.40;99.90;;;;;;5006034;28;20389;-79
2021/12/28 07:44:55;;;;;;;45.90;27.45;;;5.40;99.90;;;;;;4998419;28;20140;-78
2021/12/28 07:47:20;;;;;;;39.58;24.10;;;5.40;99.90;;;;;;4998388;28;20063;-78
2021/12/28 07:49:46;;;;;;;37.03;17.67;;;5.40;99.90;;;;;;4993655;28;20038;-75
2021/12/28 07:52:12;;;;;;;29.65;14.88;;;5.50;99.90;;;;;;4984875;28;20493;-76
2021/12/28 07:54:38;;;;;;;35.17;15.13;;;5.40;99.90;;;;;;4988577;28;20190;-77
2021/12/28 07:57:04;;;;;;;22.02;13.32;;;5.50;99.90;;;;;;4991371;28;20553;-81
2021/12/28 07:59:29;;;;;;;31.40;14.82;;;5.50;99.90;;;;;;5007817;28;20047;-79
2021/12/28 08:01:55;;;;;;;26.45;14.20;;;5.50;99.90;;;;;;5015095;28;20049;-79
2021/12/28 08:04:21;;;;;;;44.70;18.13;;;5.60;99.90;;;;;;4981243;28;20092;-79
2021/12/28 08:06:46;;;;;;;45.53;25.67;;;5.60;99.90;;;;;;5020734;28;20482;-79
2021/12/28 08:09:12;;;;;;;122.00;73.43;;;5.60;99.90;;;;;;5015066;28;20457;-78
2021/12/28 08:11:38;;;;;;;38.88;20.95;;;5.70;99.90;;;;;;4985645;28;20057;-77
2021/12/28 08:14:04;;;;;;;35.22;14.23;;;5.70;99.90;;;;;;4317334;28;10000795;-78
2021/12/28 08:16:30;;;;;;;27.13;12.70;;;5.50;99.90;;;;;;4991728;28;20137;-79
2021/12/28 08:18:56;;;;;;;26.25;11.35;;;5.20;99.90;;;;;;4997157;28;20153;-78
2021/12/28 08:21:21;;;;;;;24.80;10.82;;;5.70;99.90;;;;;;4975466;28;20054;-78
2021/12/28 08:23:47;;;;;;;23.55;11.60;;;5.70;99.90;;;;;;4978603;28;20041;-78
2021/12/28 08:26:16;;;;;;;28.75;10.25;;;5.70;99.90;;;;;;5001684;28;20053;-79
2021/12/28 08:28:42;;;;;;;25.30;10.20;;;5.90;99.90;;;;;;4992718;28;20042;-80
2021/12/28 08:31:08;;;;;;;68.30;39.88;;;5.90;99.90;;;;;;4976411;28;20482;-79
2021/12/28 08:33:33;;;;;;;70.15;43.55;;;5.90;99.90;;;;;;4974847;28;20097;-76
2021/12/28 08:35:59;;;;;;;31.08;13.48;;;5.50;99.90;;;;;;5001650;28;20048;-77
2021/12/28 08:38:25;;;;;;;23.02;10.73;;;5.50;99.90;;;;;;4991224;28;20085;-77
2021/12/28 08:40:51;;;;;;;22.35;9.63;;;6.00;99.90;;;;;;4992131;28;20057;-79
2021/12/28 08:43:16;;;;;;;25.83;11.25;;;5.50;99.90;;;;;;4992030;28;20050;-79
2021/12/28 08:45:42;;;;;;;26.63;10.82;;;5.80;99.90;;;;;;4992810;28;20050;-79
2021/12/28 08:48:11;;;;;;;18.05;9.50;;;7.70;99.90;;;;;;4976002;28;20038;-79
2021/12/28 08:50:38;;;;;;;22.00;9.65;;;7.90;99.90;;;;;;4993143;28;20047;-77
2021/12/28 08:53:03;;;;;;;26.10;10.70;;;6.10;99.90;;;;;;4982989;28;20078;-79
2021/12/28 08:55:29;;;;;;;20.80;10.15;;;6.20;99.90;;;;;;4974968;28;20428;-80
2021/12/28 08:57:55;;;;;;;29.75;11.13;;;8.00;99.90;;;;;;4974210;28;20368;-78
2021/12/28 09:00:24;;;;;;;62.17;34.95;;;6.20;99.90;;;;;;4979673;28;20132;-78
2021/12/28 09:02:53;;;;;;;74.43;41.85;;;5.60;99.90;;;;;;4976899;28;20364;-78
2021/12/28 09:05:19;;;;;;;25.25;10.60;;;6.10;99.90;;;;;;4992152;28;20434;-81
2021/12/28 09:07:45;;;;;;;26.30;10.95;;;6.30;99.90;;;;;;4982740;28;20042;-79
2021/12/28 09:10:11;;;;;;;24.23;9.80;;;6.20;99.90;;;;;;4993372;28;20939;-80
2021/12/28 09:12:37;;;;;;;25.25;10.70;;;6.40;99.90;;;;;;4997126;28;20046;-79
2021/12/28 09:15:07;;;;;;;26.08;9.93;;;6.40;99.90;;;;;;4975289;28;20058;-79
2021/12/28 09:17:34;;;;;;;27.85;9.40;;;6.40;99.90;;;;;;4996074;28;20398;-75
2021/12/28 09:20:01;;;;;;;63.85;34.35;;;6.50;99.90;;;;;;4994365;28;20046;-74
2021/12/28 09:22:27;;;;;;;48.13;26.42;;;6.40;99.90;;;;;;4993292;28;20074;-76
2021/12/28 09:24:53;;;;;;;28.13;9.73;;;6.40;99.90;;;;;;4981858;28;20069;-77
2021/12/28 09:27:19;;;;;;;22.38;9.40;;;6.50;99.90;;;;;;4982101;28;20050;-74
2021/12/28 09:29:45;;;;;;;28.27;8.93;;;7.80;99.90;;;;;;4980334;28;20065;-76
2021/12/28 09:32:10;;;;;;;28.30;10.88;;;6.50;99.90;;;;;;4975709;28;20043;-75
2021/12/28 09:34:37;;;;;;;25.63;12.00;;;6.60;99.90;;;;;;4638833;28;9999782;-80
2021/12/28 09:37:03;;;;;;;25.48;8.45;;;6.50;99.90;;;;;;4977509;28;20379;-77
2021/12/28 09:39:30;;;;;;;30.75;9.60;;;6.60;99.90;;;;;;4982692;28;20037;-77
2021/12/28 09:41:59;;;;;;;29.45;10.52;;;6.50;99.90;;;;;;4986006;28;20532;-79
2021/12/28 09:44:26;;;;;;;20.65;7.95;;;6.60;99.90;;;;;;4965694;28;20042;-76
2021/12/28 09:46:52;;;;;;;19.08;8.30;;;6.60;99.90;;;;;;4988173;28;20085;-78
2021/12/28 09:49:17;;;;;;;18.48;7.07;;;6.70;99.90;;;;;;4972812;28;20101;-76
2021/12/28 09:51:43;;;;;;;22.90;9.02;;;6.70;99.90;;;;;;4968251;28;20097;-79
2021/12/28 09:54:09;;;;;;;18.52;7.38;;;6.40;99.90;;;;;;4989272;28;20092;-79
2021/12/28 09:56:36;;;;;;;20.15;6.68;;;6.70;99.90;;;;;;4976496;28;20470;-79
2021/12/28 09:59:03;;;;;;;18.50;8.23;;;6.50;99.90;;;;;;4971449;28;20388;-80
2021/12/28 10:01:29;;;;;;;18.75;8.98;;;6.80;99.90;;;;;;5005411;28;20137;-80
2021/12/28 10:03:57;;;;;;;27.40;9.00;;;6.80;99.90;;;;;;4972038;28;20172;-78
2021/12/28 10:06:25;;;;;;;58.65;37.72;;;6.70;99.90;;;;;;4990704;28;20113;-78
2021/12/28 10:09:16;;;;;;;33.92;15.45;;;6.80;99.90;;;;;;4972850;28;20042;-78
2021/12/28 10:11:48;;;;;;;25.80;8.93;;;7.70;99.90;;;;;;4988432;28;20048;-75
2021/12/28 10:14:21;;;;;;;24.15;7.43;;;6.70;99.90;;;;;;4969722;28;20406;-76
2021/12/28 10:16:54;;;;;;;17.58;7.97;;;6.90;99.90;;;;;;5008783;28;20054;-79
2021/12/28 10:19:30;;;;;;;18.55;7.47;;;6.90;99.90;;;;;;4989889;28;20050;-78
2021/12/28 10:21:56;;;;;;;21.45;8.35;;;6.90;99.90;;;;;;4969456;28;20661;-75
2021/12/28 10:24:34;;;;;;;22.77;9.02;;;6.80;99.90;;;;;;4987691;28;20462;-77
2021/12/28 10:27:11;;;;;;;16.90;7.28;;;6.90;99.90;;;;;;5003541;28;20450;-79
2021/12/28 10:29:36;;;;;;;19.85;7.63;;;8.50;99.90;;;;;;5005268;28;20518;-79
2021/12/28 10:32:25;;;;;;;20.27;8.35;;;6.90;99.90;;;;;;4988693;28;20089;-79
2021/12/28 10:34:54;;;;;;;25.55;8.90;;;6.90;99.90;;;;;;4982522;28;20038;-80
2021/12/28 10:37:23;;;;;;;24.75;8.77;;;6.90;99.90;;;;;;4968449;28;20078;-78
2021/12/28 10:39:51;;;;;;;24.15;9.60;;;6.90;99.90;;;;;;4971496;28;20054;-78
2021/12/28 10:42:56;;;;;;;17.77;8.10;;;6.80;99.90;;;;;;4974688;28;20047;-79
2021/12/28 10:45:36;;;;;;;16.48;7.93;;;6.90;99.90;;;;;;4991008;28;20065;-80
2021/12/28 10:48:06;;;;;;;22.05;8.48;;;6.90;99.90;;;;;;5024332;28;20181;-79
2021/12/28 10:50:38;;;;;;;20.67;7.68;;;6.90;99.90;;;;;;4973016;28;20100;-78
2021/12/28 10:53:11;;;;;;;36.85;17.60;;;6.90;99.90;;;;;;4985744;28;20053;-80
2021/12/28 10:55:40;;;;;;;26.63;13.15;;;8.40;99.90;;;;;;4993015;28;20073;-80
2021/12/28 10:58:06;;;;;;;24.98;8.90;;;6.90;99.90;;;;;;4973535;28;20041;-79
2021/12/28 11:00:37;;;;;;;17.65;8.20;;;6.90;99.90;;;;;;4973715;28;20045;-79
2021/12/28 11:03:16;;;;;;;19.77;7.93;;;7.00;99.90;;;;;;4987992;28;20574;-79
2021/12/28 11:05:45;;;;;;;15.57;8.00;;;7.00;99.90;;;;;;4989346;28;20091;-79
2021/12/28 11:08:12;;;;;;;17.08;8.27;;;7.00;99.90;;;;;;4991118;28;20038;-78
2021/12/28 11:10:48;;;;;;;10.88;6.53;;;7.00;99.90;;;;;;4970115;28;20076;-79
2021/12/28 11:13:14;;;;;;;15.73;8.02;;;7.00;99.90;;;;;;4993767;28;20618;-76
2021/12/28 11:15:46;;;;;;;13.32;7.47;;;6.60;99.90;;;;;;4970490;28;20550;-77
2021/12/28 11:18:20;;;;;;;11.60;6.53;;;7.00;99.90;;;;;;4971664;28;20091;-77
2021/12/28 11:20:47;;;;;;;14.95;8.15;;;6.90;99.90;;;;;;4986424;28;20143;-76
2021/12/28 11:23:16;;;;;;;14.68;7.70;;;7.00;99.90;;;;;;4971772;28;20064;-79
2021/12/28 11:25:42;;;;;;;14.07;7.22;;;8.50;99.90;;;;;;4972065;28;20438;-77
2021/12/28 11:28:16;;;;;;;12.70;7.28;;;7.10;99.90;;;;;;4988044;28;20137;-75
2021/12/28 11:31:09;;;;;;;15.23;7.28;;;7.10;99.90;;;;;;4985171;28;20055;-78
2021/12/28 11:33:59;;;;;;;11.60;7.68;;;7.10;99.90;;;;;;5017614;28;20683;-80
2021/12/28 11:36:28;;;;;;;11.10;7.28;;;7.10;99.90;;;;;;4985540;28;20054;-79
2021/12/28 11:38:55;;;;;;;15.35;7.75;;;7.10;99.90;;;;;;4988322;28;20039;-78
2021/12/28 11:41:21;;;;;;;10.00;6.57;;;8.70;99.90;;;;;;4988197;28;20141;-78
2021/12/28 11:43:48;;;;;;;10.95;6.85;;;7.10;99.90;;;;;;4987569;28;20050;-79
2021/12/28 11:46:15;;;;;;;12.70;7.13;;;7.10;99.90;;;;;;5003625;28;20049;-79
2021/12/28 11:48:41;;;;;;;15.70;8.15;;;7.10;99.90;;;;;;4970203;28;20487;-79
2021/12/28 11:51:07;;;;;;;11.48;7.40;;;7.10;99.90;;;;;;4974109;28;20054;-80
2021/12/28 11:53:37;;;;;;;9.23;7.13;;;7.10;99.90;;;;;;4982231;28;20102;-79
2021/12/28 11:56:04;;;;;;;13.77;6.97;;;7.20;99.90;;;;;;4984362;28;20043;-78
2021/12/28 11:58:50;;;;;;;14.57;8.07;;;7.10;99.90;;;;;;4970296;28;20364;-78
2021/12/28 12:01:44;;;;;;;12.77;7.30;;;7.20;99.90;;;;;;4984790;28;20057;-79
2021/12/28 12:04:47;;;;;;;9.80;6.93;;;7.40;99.90;;;;;;4960419;28;20050;-77
2021/12/28 12:07:16;;;;;;;11.15;6.82;;;7.20;99.90;;;;;;4955383;28;20511;-77
2021/12/28 12:09:54;;;;;;;8.45;6.53;;;7.20;99.90;;;;;;4965307;28;20047;-77
2021/12/28 12:12:28;;;;;;;10.07;6.85;;;6.90;99.90;;;;;;4964793;28;20083;-79
2021/12/28 12:14:57;;;;;;;9.13;6.47;;;7.20;99.90;;;;;;4973027;28;21274;-77
2021/12/28 12:17:26;;;;;;;9.38;6.32;;;7.30;99.90;;;;;;5005968;28;20046;-78
2021/12/28 12:19:53;;;;;;;9.55;6.05;;;7.30;99.90;;;;;;4990396;28;20443;-79
2021/12/28 12:22:37;;;;;;;17.02;13.02;;;7.30;99.90;;;;;;4992286;28;20052;-78
2021/12/28 12:25:09;;;;;;;16.60;12.13;;;6.80;99.90;;;;;;4969601;28;20042;-77
2021/12/28 12:27:52;;;;;;;10.60;5.88;;;7.30;99.90;;;;;;4994534;28;20042;-78
2021/12/28 12:30:18;;;;;;;8.40;4.72;;;7.30;99.90;;;;;;4977937;28;20057;-76
2021/12/28 12:32:56;;;;;;;5.25;4.75;;;7.20;99.90;;;;;;4977278;28;20042;-78
2021/12/28 12:35:32;;;;;;;9.57;5.88;;;7.40;99.90;;;;;;4993014;28;20046;-76
2021/12/28 12:38:00;;;;;;;9.88;4.97;;;7.40;99.90;;;;;;4993223;28;20046;-78
2021/12/28 12:40:58;;;;;;;5.75;4.72;;;7.40;99.90;;;;;;4975399;28;20049;-80
2021/12/28 12:43:25;;;;;;;6.55;5.68;;;7.40;99.90;;;;;;4975560;28;20081;-76